Station Historical Data
Daily Summary for May 30, 2012 Units:  English    Metric   Both
« Previous Day
Next Day »
Daily Weekly Monthly Yearly Custom
  High: Low: Average:
Temperature: 88.0 °F 60.4 °F 73.4 °F
Dew Point: 72.2 °F 55.8 °F 64 °F
Humidity: 95% 34% 76%
Wind Speed: 6.0mph 0.0mph 1.6mph
Wind Gust: 9.0mph - -
Wind- - SSE
Pressure: 29.86 in 29.77 in -
Precipitation: 0.02 in    
Historical Graphs
 
 
Tabular Data for May 30, 2012
Time Temperature Dew Point Pressure Wind Wind Speed Wind Gust Humidity Rainfall Rate (Hourly) Conditions
00:00 65.1 °F 63.3 °F 29.80 in NW 1.0 mph 2.0 mph 94% 0.00 in
00:05 65.0 °F 63.5 °F 29.80 in Calm   2.0 mph 95% 0.00 in
00:10 65.0 °F 63.5 °F 29.80 in Calm     95% 0.00 in
00:11 65.0 °F 63.5 °F 29.80 in Calm     95% 0.00 in
00:16 64.9 °F 63.4 °F 29.80 in WSW 1.0 mph 1.0 mph 95% 0.00 in
00:21 64.9 °F 63.4 °F 29.80 in Calm   1.0 mph 95% 0.00 in
00:26 64.9 °F 63.4 °F 29.80 in WSW 1.0 mph 1.0 mph 95% 0.00 in
00:31 64.9 °F 63.4 °F 29.80 in Calm   1.0 mph 95% 0.00 in
00:36 64.8 °F 63.3 °F 29.80 in Calm   1.0 mph 95% 0.00 in
00:41 64.6 °F 63.1 °F 29.80 in West 1.0 mph 1.0 mph 95% 0.00 in
00:46 64.4 °F 62.9 °F 29.80 in NW 1.0 mph 2.0 mph 95% 0.00 in
00:51 64.3 °F 62.8 °F 29.81 in NNW 1.0 mph 2.0 mph 95% 0.00 in
00:56 64.0 °F 62.5 °F 29.81 in North 1.0 mph 2.0 mph 95% 0.00 in
01:01 64.1 °F 62.6 °F 29.81 in North 1.0 mph 1.0 mph 95% 0.00 in
01:06 64.1 °F 62.6 °F 29.81 in NNE 1.0 mph 1.0 mph 95% 0.00 in
01:11 63.9 °F 62.4 °F 29.81 in NNE 1.0 mph 2.0 mph 95% 0.00 in
01:16 63.8 °F 62.3 °F 29.81 in NNE 1.0 mph 1.0 mph 95% 0.00 in
01:21 63.7 °F 62.2 °F 29.81 in North 1.0 mph 2.0 mph 95% 0.00 in
01:26 63.5 °F 62.0 °F 29.82 in NNE 2.0 mph 5.0 mph 95% 0.00 in
01:31 63.6 °F 62.2 °F 29.82 in NE 3.0 mph 4.0 mph 95% 0.00 in
01:36 63.6 °F 62.2 °F 29.82 in NNE 3.0 mph 5.0 mph 95% 0.00 in
01:41 63.5 °F 62.0 °F 29.82 in NNE 2.0 mph 4.0 mph 95% 0.00 in
01:47 63.4 °F 62.0 °F 29.82 in NNE 2.0 mph 3.0 mph 95% 0.00 in
01:52 63.3 °F 61.8 °F 29.82 in ENE 2.0 mph 3.0 mph 95% 0.00 in
01:57 63.4 °F 62.0 °F 29.82 in NE 3.0 mph 4.0 mph 95% 0.00 in
02:02 63.4 °F 62.0 °F 29.82 in ENE 4.0 mph 4.0 mph 95% 0.00 in
02:07 63.3 °F 61.8 °F 29.82 in ENE 1.0 mph 3.0 mph 95% 0.00 in
02:12 63.3 °F 61.8 °F 29.81 in ENE 2.0 mph 3.0 mph 95% 0.00 in
02:17 63.2 °F 61.8 °F 29.81 in ENE 1.0 mph 3.0 mph 95% 0.00 in
02:22 63.1 °F 61.7 °F 29.81 in NE 2.0 mph 2.0 mph 95% 0.00 in
02:27 63.0 °F 61.5 °F 29.81 in NNE 2.0 mph 3.0 mph 95% 0.00 in
02:32 62.8 °F 61.3 °F 29.81 in NNE 1.0 mph 2.0 mph 95% 0.00 in
02:37 62.7 °F 61.2 °F 29.82 in Calm     95% 0.00 in
02:42 62.5 °F 61.0 °F 29.82 in Calm   1.0 mph 95% 0.00 in
02:47 62.4 °F 61.0 °F 29.82 in Calm   2.0 mph 95% 0.00 in
02:52 62.4 °F 61.0 °F 29.82 in NE 1.0 mph 2.0 mph 95% 0.00 in
02:57 62.4 °F 61.0 °F 29.82 in ENE 1.0 mph 3.0 mph 95% 0.00 in
03:02 62.4 °F 61.0 °F 29.82 in NE 2.0 mph 3.0 mph 95% 0.00 in
03:07 62.4 °F 61.0 °F 29.82 in NE 3.0 mph 3.0 mph 95% 0.00 in
03:12 62.4 °F 61.0 °F 29.82 in NE 3.0 mph 5.0 mph 95% 0.00 in
03:17 62.4 °F 61.0 °F 29.82 in NNE 2.0 mph 3.0 mph 95% 0.00 in
03:22 62.2 °F 60.8 °F 29.82 in NNE 2.0 mph 2.0 mph 95% 0.00 in
03:27 62.1 °F 60.7 °F 29.82 in NNW 1.0 mph 2.0 mph 95% 0.00 in
03:32 62.0 °F 60.6 °F 29.82 in North 1.0 mph 2.0 mph 95% 0.00 in
03:37 61.9 °F 60.5 °F 29.82 in North 1.0 mph 2.0 mph 95% 0.00 in
03:42 61.9 °F 60.5 °F 29.82 in NE 1.0 mph 2.0 mph 95% 0.00 in
03:48 61.9 °F 60.5 °F 29.82 in NNE 1.0 mph 2.0 mph 95% 0.00 in
03:53 62.0 °F 60.6 °F 29.82 in NNE 2.0 mph 4.0 mph 95% 0.00 in
03:58 62.0 °F 60.6 °F 29.82 in NNE 2.0 mph 3.0 mph 95% 0.00 in
04:03 62.0 °F 60.6 °F 29.81 in NE 3.0 mph 4.0 mph 95% 0.00 in
04:08 62.1 °F 60.7 °F 29.81 in NNE 1.0 mph 3.0 mph 95% 0.00 in
04:13 62.1 °F 60.7 °F 29.81 in NE 2.0 mph 3.0 mph 95% 0.00 in
04:18 62.0 °F 60.6 °F 29.82 in NNE 1.0 mph 2.0 mph 95% 0.00 in
04:23 62.0 °F 60.6 °F 29.82 in NE 1.0 mph 3.0 mph 95% 0.00 in
04:28 61.9 °F 60.5 °F 29.81 in NNE 2.0 mph 3.0 mph 95% 0.00 in
04:33 61.8 °F 60.4 °F 29.82 in NNE 1.0 mph 2.0 mph 95% 0.00 in
04:38 61.7 °F 60.3 °F 29.82 in NNE 1.0 mph 2.0 mph 95% 0.00 in
04:43 61.8 °F 60.4 °F 29.82 in NE 3.0 mph 3.0 mph 95% 0.00 in
04:48 61.9 °F 60.5 °F 29.81 in NE 2.0 mph 4.0 mph 95% 0.00 in
04:53 61.9 °F 60.5 °F 29.81 in North 2.0 mph 3.0 mph 95% 0.00 in
04:58 61.8 °F 60.4 °F 29.81 in NE 1.0 mph 3.0 mph 95% 0.00 in
05:03 62.0 °F 60.6 °F 29.81 in NE 4.0 mph 4.0 mph 95% 0.00 in
05:08 62.1 °F 60.7 °F 29.81 in NNE 2.0 mph 4.0 mph 95% 0.00 in
05:13 62.1 °F 60.7 °F 29.81 in NE 3.0 mph 4.0 mph 95% 0.00 in
05:18 62.0 °F 60.6 °F 29.81 in Calm   3.0 mph 95% 0.00 in
05:23 61.9 °F 60.5 °F 29.81 in NNE 2.0 mph 2.0 mph 95% 0.00 in
05:28 61.8 °F 60.4 °F 29.82 in Calm   2.0 mph 95% 0.00 in
05:33 61.6 °F 60.2 °F 29.82 in Calm   1.0 mph 95% 0.00 in
05:38 61.6 °F 60.2 °F 29.82 in Calm   1.0 mph 95% 0.00 in
05:43 61.6 °F 60.2 °F 29.82 in Calm   1.0 mph 95% 0.00 in
05:48 61.7 °F 60.3 °F 29.82 in Calm   1.0 mph 95% 0.00 in
05:53 61.6 °F 60.2 °F 29.82 in Calm     95% 0.00 in
05:58 61.5 °F 60.1 °F 29.82 in Calm     95% 0.00 in
06:03 61.4 °F 60.0 °F 29.82 in Calm     95% 0.00 in
06:09 61.2 °F 59.8 °F 29.82 in Calm     95% 0.00 in
06:14 61.2 °F 59.8 °F 29.82 in Calm   1.0 mph 95% 0.00 in
06:19 61.1 °F 59.7 °F 29.82 in ESE 1.0 mph 1.0 mph 95% 0.00 in
06:24 61.1 °F 59.7 °F 29.82 in ESE 1.0 mph 1.0 mph 95% 0.00 in
06:29 60.9 °F 59.5 °F 29.82 in ESE 1.0 mph 1.0 mph 95% 0.00 in
06:34 60.9 °F 59.5 °F 29.83 in ESE 1.0 mph 2.0 mph 95% 0.00 in
06:39 60.8 °F 59.4 °F 29.83 in ESE 1.0 mph 1.0 mph 95% 0.00 in
06:44 60.8 °F 59.4 °F 29.83 in ESE 1.0 mph 1.0 mph 95% 0.00 in
06:49 60.7 °F 59.3 °F 29.83 in Calm     95% 0.00 in
06:54 60.5 °F 59.1 °F 29.83 in Calm     95% 0.00 in
06:59 60.4 °F 59.0 °F 29.83 in Calm     95% 0.00 in
07:04 60.5 °F 59.1 °F 29.83 in Calm     95% 0.00 in
07:09 60.7 °F 59.3 °F 29.84 in Calm     95% 0.00 in
07:14 60.6 °F 59.2 °F 29.84 in Calm     95% 0.00 in
07:19 60.5 °F 59.1 °F 29.84 in Calm     95% 0.00 in
07:24 60.6 °F 59.2 °F 29.84 in Calm     95% 0.00 in
07:29 60.8 °F 59.4 °F 29.84 in Calm     95% 0.00 in
07:34 61.1 °F 59.7 °F 29.84 in Calm     95% 0.00 in
07:39 61.1 °F 59.7 °F 29.84 in SE 1.0 mph 1.0 mph 95% 0.00 in
07:44 61.4 °F 60.0 °F 29.84 in SW 1.0 mph 1.0 mph 95% 0.00 in
07:49 62.0 °F 60.6 °F 29.85 in WSW 1.0 mph 1.0 mph 95% 0.00 in
07:54 62.7 °F 61.2 °F 29.84 in WSW 2.0 mph 2.0 mph 95% 0.00 in
07:59 62.6 °F 61.2 °F 29.85 in West 1.0 mph 2.0 mph 95% 0.00 in
08:04 62.7 °F 61.2 °F 29.85 in West 1.0 mph 3.0 mph 95% 0.00 in
08:09 63.1 °F 61.7 °F 29.85 in Calm   2.0 mph 95% 0.00 in
08:14 63.3 °F 61.8 °F 29.85 in West 2.0 mph 2.0 mph 95% 0.00 in
08:19 63.7 °F 62.2 °F 29.85 in West 1.0 mph 2.0 mph 95% 0.00 in
08:24 64.0 °F 62.5 °F 29.85 in WNW 2.0 mph 2.0 mph 95% 0.00 in
08:29 64.2 °F 62.7 °F 29.85 in NW 1.0 mph 2.0 mph 95% 0.00 in
08:34 64.5 °F 62.7 °F 29.85 in West 1.0 mph 1.0 mph 94% 0.00 in
08:39 65.1 °F 63.3 °F 29.85 in WNW 2.0 mph 2.0 mph 94% 0.00 in
08:44 65.2 °F 63.4 °F 29.85 in NW 1.0 mph 2.0 mph 94% 0.00 in
08:49 65.6 °F 63.8 °F 29.85 in Calm   1.0 mph 94% 0.00 in
08:54 66.4 °F 64.6 °F 29.85 in Calm   1.0 mph 94% 0.00 in
08:59 67.2 °F 65.4 °F 29.85 in Calm   1.0 mph 94% 0.00 in
09:04 67.8 °F 66.0 °F 29.85 in Calm     94% 0.00 in
09:09 68.3 °F 66.2 °F 29.86 in NNW 1.0 mph 1.0 mph 93% 0.00 in
09:14 68.6 °F 66.5 °F 29.85 in NNW 1.0 mph 2.0 mph 93% 0.00 in
09:19 69.2 °F 67.1 °F 29.86 in Calm   1.0 mph 93% 0.00 in
09:24 69.7 °F 67.3 °F 29.86 in Calm   2.0 mph 92% 0.00 in
09:29 70.3 °F 68.2 °F 29.86 in NE 1.0 mph 2.0 mph 93% 0.00 in
09:34 70.7 °F 68.3 °F 29.86 in Calm   2.0 mph 92% 0.00 in
09:40 71.2 °F 68.8 °F 29.85 in NNE 2.0 mph 3.0 mph 92% 0.00 in
09:45 71.6 °F 68.8 °F 29.85 in NNE 1.0 mph 2.0 mph 91% 0.00 in
09:50 72.1 °F 69.3 °F 29.86 in ENE 1.0 mph 3.0 mph 91% 0.00 in
09:55 72.6 °F 69.5 °F 29.86 in NNE 2.0 mph 3.0 mph 90% 0.00 in
10:00 73.0 °F 69.6 °F 29.86 in Calm   4.0 mph 89% 0.00 in
10:05 73.2 °F 69.8 °F 29.86 in North 2.0 mph 3.0 mph 89% 0.00 in
10:10 73.6 °F 70.5 °F 29.86 in NNW 1.0 mph 2.0 mph 90% 0.00 in
10:15 73.9 °F 70.1 °F 29.86 in NE 3.0 mph 4.0 mph 88% 0.00 in
10:20 74.2 °F 70.1 °F 29.86 in ENE 2.0 mph 3.0 mph 87% 0.00 in
10:25 74.4 °F 70.3 °F 29.86 in WNW 1.0 mph 3.0 mph 87% 0.00 in
10:30 74.9 °F 70.8 °F 29.86 in NNW 3.0 mph 3.0 mph 87% 0.00 in
10:35 75.1 °F 70.6 °F 29.86 in NNW 2.0 mph 5.0 mph 86% 0.00 in
10:40 75.4 °F 70.9 °F 29.86 in Calm   2.0 mph 86% 0.00 in
10:45 76.3 °F 71.1 °F 29.86 in Calm   2.0 mph 84% 0.00 in
10:50 76.7 °F 70.8 °F 29.86 in WNW 2.0 mph 3.0 mph 82% 0.00 in
10:55 77.0 °F 72.2 °F 29.86 in NNE 1.0 mph 2.0 mph 85% 0.00 in
11:00 77.3 °F 71.4 °F 29.86 in Calm   4.0 mph 82% 0.00 in
11:05 77.2 °F 70.2 °F 29.86 in NE 1.0 mph 3.0 mph 79% 0.00 in
11:10 77.2 °F 70.2 °F 29.86 in East 1.0 mph 1.0 mph 79% 0.00 in
11:15 77.6 °F 69.8 °F 29.86 in North 1.0 mph 3.0 mph 77% 0.00 in
11:20 77.8 °F 69.2 °F 29.86 in Calm   3.0 mph 75% 0.00 in
11:25 78.2 °F 69.6 °F 29.86 in West 1.0 mph 2.0 mph 75% 0.00 in
11:31 78.6 °F 70.0 °F 29.86 in North 2.0 mph 5.0 mph 75% 0.00 in
11:36 78.5 °F 70.3 °F 29.86 in North 2.0 mph 4.0 mph 76% 0.00 in
11:41 78.7 °F 69.3 °F 29.86 in West 2.0 mph 4.0 mph 73% 0.00 in
11:46 78.9 °F 69.9 °F 29.86 in WSW 2.0 mph 2.0 mph 74% 0.00 in
11:51 79.2 °F 71.0 °F 29.86 in NW 1.0 mph 3.0 mph 76% 0.00 in
11:56 79.6 °F 70.6 °F 29.86 in NW 4.0 mph 4.0 mph 74% 0.00 in
12:01 79.4 °F 69.6 °F 29.86 in NNW 1.0 mph 4.0 mph 72% 0.00 in
12:06 79.6 °F 69.4 °F 29.86 in NNW 2.0 mph 3.0 mph 71% 0.00 in
12:11 79.9 °F 69.7 °F 29.86 in NW 2.0 mph 3.0 mph 71% 0.00 in
12:16 80.2 °F 69.5 °F 29.86 in Calm   5.0 mph 70% 0.00 in
12:21 80.8 °F 69.3 °F 29.86 in West 2.0 mph 2.0 mph 68% 0.00 in
12:26 80.8 °F 68.8 °F 29.86 in NNE 2.0 mph 2.0 mph 67% 0.00 in
12:31 80.9 °F 69.8 °F 29.86 in WSW 3.0 mph 5.0 mph 69% 0.00 in
12:36 81.0 °F 69.4 °F 29.86 in ESE 1.0 mph 3.0 mph 68% 0.00 in
12:41 81.4 °F 69.8 °F 29.85 in SW 2.0 mph 4.0 mph 68% 0.00 in
12:46 81.2 °F 69.6 °F 29.85 in WNW 3.0 mph 3.0 mph 68% 0.00 in
12:51 81.6 °F 68.7 °F 29.85 in NW 3.0 mph 6.0 mph 65% 0.00 in
12:56 81.4 °F 69.4 °F 29.85 in NNE 4.0 mph 5.0 mph 67% 0.00 in
13:01 81.8 °F 68.0 °F 29.85 in WNW 2.0 mph 5.0 mph 63% 0.00 in
13:06 82.0 °F 67.7 °F 29.85 in West 4.0 mph 4.0 mph 62% 0.00 in
13:11 82.0 °F 65.8 °F 29.85 in WNW 1.0 mph 6.0 mph 58% 0.00 in
13:16 82.2 °F 66.9 °F 29.85 in WNW 5.0 mph 7.0 mph 60% 0.00 in
13:21 82.3 °F 65.1 °F 29.85 in WSW 3.0 mph 5.0 mph 56% 0.00 in
13:26 82.6 °F 64.8 °F 29.85 in SW 3.0 mph 6.0 mph 55% 0.00 in
13:31 83.2 °F 65.9 °F 29.85 in NW 2.0 mph 4.0 mph 56% 0.00 in
13:37 83.4 °F 65.0 °F 29.85 in NNE 2.0 mph 5.0 mph 54% 0.00 in
13:42 83.6 °F 66.3 °F 29.85 in Calm   3.0 mph 56% 0.00 in
13:47 84.0 °F 65.1 °F 29.84 in NNE 3.0 mph 7.0 mph 53% 0.00 in
13:52 83.8 °F 63.8 °F 29.84 in SE 2.0 mph 4.0 mph 51% 0.00 in
13:57 84.1 °F 64.0 °F 29.84 in Calm   4.0 mph 51% 0.00 in
14:02 84.6 °F 62.8 °F 29.84 in SSW 1.0 mph 3.0 mph 48% 0.00 in
14:07 84.9 °F 63.6 °F 29.83 in ENE 3.0 mph 4.0 mph 49% 0.00 in
14:12 85.1 °F 65.5 °F 29.83 in North 3.0 mph 3.0 mph 52% 0.00 in
14:17 85.0 °F 66.5 °F 29.83 in Calm   4.0 mph 54% 0.00 in
14:22 85.5 °F 66.4 °F 29.83 in West 2.0 mph 2.0 mph 53% 0.00 in
14:27 85.6 °F 64.3 °F 29.82 in NW 3.0 mph 9.0 mph 49% 0.00 in
14:32 84.9 °F 66.9 °F 29.82 in NW 1.0 mph 6.0 mph 55% 0.00 in
14:37 84.7 °F 64.6 °F 29.82 in NNW 3.0 mph 7.0 mph 51% 0.00 in
14:38 84.6 °F 66.1 °F 29.82 in West 2.0 mph 7.0 mph 54% 0.00 in
14:43 85.0 °F 67.0 °F 29.82 in WNW 2.0 mph 3.0 mph 55% 0.00 in
14:48 85.2 °F 65.1 °F 29.82 in Calm   3.0 mph 51% 0.00 in
14:53 85.4 °F 65.8 °F 29.82 in WSW 3.0 mph 7.0 mph 52% 0.00 in
14:58 85.4 °F 64.1 °F 29.82 in North 3.0 mph 6.0 mph 49% 0.00 in
15:03 85.2 °F 64.5 °F 29.81 in NNW 2.0 mph 6.0 mph 50% 0.00 in
15:09 85.5 °F 63.6 °F 29.81 in SE 1.0 mph 4.0 mph 48% 0.00 in
15:14 86.3 °F 66.1 °F 29.81 in NE 2.0 mph 4.0 mph 51% 0.00 in
15:19 86.2 °F 63.0 °F 29.81 in North 4.0 mph 6.0 mph 46% 0.00 in
15:24 86.4 °F 62.6 °F 29.81 in ESE 2.0 mph 3.0 mph 45% 0.00 in
15:29 86.4 °F 61.3 °F 29.81 in Calm   3.0 mph 43% 0.00 in
15:34 87.3 °F 62.7 °F 29.80 in North 2.0 mph 3.0 mph 44% 0.00 in
15:39 87.3 °F 63.4 °F 29.81 in Calm   3.0 mph 45% 0.00 in
15:44 87.5 °F 63.6 °F 29.81 in WNW 2.0 mph 3.0 mph 45% 0.00 in
15:49 87.6 °F 64.3 °F 29.80 in WNW 3.0 mph 3.0 mph 46% 0.00 in
15:54 87.8 °F 64.5 °F 29.80 in North 4.0 mph 4.0 mph 46% 0.00 in
15:59 87.4 °F 58.7 °F 29.80 in NNE 5.0 mph 5.0 mph 38% 0.00 in
16:04 87.1 °F 57.7 °F 29.79 in NW 2.0 mph 4.0 mph 37% 0.00 in
16:09 87.2 °F 58.5 °F 29.80 in NW 4.0 mph 6.0 mph 38% 0.00 in
16:14 87.0 °F 60.5 °F 29.80 in NW 3.0 mph 5.0 mph 41% 0.00 in
16:19 87.2 °F 57.0 °F 29.80 in NE 2.0 mph 6.0 mph 36% 0.00 in
16:24 87.3 °F 57.9 °F 29.80 in East 4.0 mph 4.0 mph 37% 0.00 in
16:29 87.2 °F 57.0 °F 29.80 in WNW 4.0 mph 6.0 mph 36% 0.00 in
16:34 86.8 °F 58.9 °F 29.79 in West 2.0 mph 5.0 mph 39% 0.00 in
16:39 87.4 °F 60.8 °F 29.79 in Calm   3.0 mph 41% 0.00 in
16:44 88.0 °F 61.4 °F 29.80 in WNW 6.0 mph 6.0 mph 41% 0.00 in
16:49 87.4 °F 60.1 °F 29.79 in NW 4.0 mph 7.0 mph 40% 0.00 in
16:54 87.0 °F 59.1 °F 29.79 in WNW 3.0 mph 5.0 mph 39% 0.00 in
16:59 87.0 °F 59.8 °F 29.79 in West 2.0 mph 4.0 mph 40% 0.00 in
17:04 86.9 °F 60.4 °F 29.79 in WNW 2.0 mph 4.0 mph 41% 0.00 in
17:09 86.9 °F 56.8 °F 29.79 in WNW 2.0 mph 4.0 mph 36% 0.00 in
17:14 87.2 °F 57.8 °F 29.79 in North 2.0 mph 3.0 mph 37% 0.00 in
17:19 87.6 °F 55.8 °F 29.79 in NE 1.0 mph 2.0 mph 34% 0.00 in
17:24 88.0 °F 58.5 °F 29.79 in WNW 2.0 mph 2.0 mph 37% 0.00 in
17:29 88.0 °F 63.4 °F 29.78 in NW 2.0 mph 3.0 mph 44% 0.00 in
17:34 87.0 °F 59.1 °F 29.79 in NW 3.0 mph 4.0 mph 39% 0.00 in
17:39 86.7 °F 61.5 °F 29.79 in NNW 2.0 mph 3.0 mph 43% 0.00 in
17:44 86.6 °F 60.8 °F 29.79 in WNW 3.0 mph 4.0 mph 42% 0.00 in
17:49 86.5 °F 60.0 °F 29.79 in NW 4.0 mph 5.0 mph 41% 0.00 in
17:54 86.0 °F 60.9 °F 29.78 in WNW 4.0 mph 5.0 mph 43% 0.00 in
18:00 85.5 °F 62.4 °F 29.78 in WNW 3.0 mph 4.0 mph 46% 0.00 in
18:05 85.1 °F 60.1 °F 29.78 in WNW 3.0 mph 4.0 mph 43% 0.00 in
18:07 84.9 °F 60.6 °F 29.78 in NW 2.0 mph 4.0 mph 44% 0.00 in
18:12 84.5 °F 60.2 °F 29.78 in WNW 2.0 mph 4.0 mph 44% 0.00 in
18:18 84.2 °F 61.2 °F 29.78 in WNW 1.0 mph 3.0 mph 46% 0.00 in
18:23 83.8 °F 63.2 °F 29.78 in NW 2.0 mph 3.0 mph 50% 0.00 in
18:28 83.4 °F 65.0 °F 29.78 in NW 2.0 mph 4.0 mph 54% 0.00 in
18:33 82.9 °F 66.1 °F 29.77 in NW 1.0 mph 2.0 mph 57% 0.00 in
18:38 82.7 °F 65.9 °F 29.77 in NNW 2.0 mph 3.0 mph 57% 0.00 in
18:43 82.5 °F 66.2 °F 29.77 in NNW 2.0 mph 3.0 mph 58% 0.00 in
18:48 82.5 °F 67.7 °F 29.78 in NW 1.0 mph 2.0 mph 61% 0.00 in
18:53 82.3 °F 67.5 °F 29.78 in NW 1.0 mph 1.0 mph 61% 0.00 in
18:58 82.2 °F 66.9 °F 29.78 in NW 1.0 mph 2.0 mph 60% 0.00 in
19:03 82.0 °F 68.2 °F 29.78 in NW 1.0 mph 2.0 mph 63% 0.00 in
19:08 81.7 °F 68.8 °F 29.78 in NNW 2.0 mph 3.0 mph 65% 0.00 in
19:13 81.4 °F 68.1 °F 29.78 in NNW 2.0 mph 3.0 mph 64% 0.00 in
19:18 81.3 °F 68.0 °F 29.78 in NNE 2.0 mph 3.0 mph 64% 0.00 in
19:23 81.2 °F 67.9 °F 29.77 in North 2.0 mph 3.0 mph 64% 0.00 in
19:28 81.0 °F 67.7 °F 29.77 in North 2.0 mph 2.0 mph 64% 0.00 in
19:33 80.8 °F 67.0 °F 29.77 in NNW 2.0 mph 4.0 mph 63% 0.00 in
19:38 80.5 °F 67.2 °F 29.78 in North 2.0 mph 5.0 mph 64% 0.00 in
19:43 80.3 °F 67.0 °F 29.78 in North 3.0 mph 4.0 mph 64% 0.00 in
19:48 80.2 °F 67.4 °F 29.78 in Calm   2.0 mph 65% 0.00 in
19:53 79.9 °F 67.5 °F 29.78 in North 1.0 mph 2.0 mph 66% 0.00 in
19:58 79.7 °F 67.3 °F 29.78 in Calm   2.0 mph 66% 0.00 in
20:03 79.6 °F 67.2 °F 29.78 in Calm   1.0 mph 66% 0.00 in
20:08 79.5 °F 67.2 °F 29.78 in Calm   1.0 mph 66% 0.00 in
20:13 79.3 °F 67.4 °F 29.78 in Calm   1.0 mph 67% 0.00 in
20:18 79.0 °F 67.6 °F 29.78 in Calm     68% 0.00 in
20:23 78.7 °F 67.3 °F 29.78 in Calm   1.0 mph 68% 0.00 in
20:28 78.5 °F 67.1 °F 29.78 in Calm   1.0 mph 68% 0.00 in
20:33 78.3 °F 66.9 °F 29.78 in NNE 1.0 mph 1.0 mph 68% 0.00 in
20:38 78.0 °F 66.2 °F 29.78 in NE 2.0 mph 2.0 mph 67% 0.00 in
20:43 77.9 °F 65.6 °F 29.78 in NE 1.0 mph 3.0 mph 66% 0.00 in
20:48 77.9 °F 65.6 °F 29.78 in NE 4.0 mph 4.0 mph 66% 0.00 in
20:53 77.7 °F 65.4 °F 29.78 in NNE 2.0 mph 3.0 mph 66% 0.00 in
20:58 77.5 °F 65.3 °F 29.78 in NNE 2.0 mph 3.0 mph 66% 0.00 in
21:03 77.3 °F 65.5 °F 29.78 in NE 2.0 mph 3.0 mph 67% 0.00 in
21:08 77.1 °F 65.3 °F 29.78 in NNE 2.0 mph 3.0 mph 67% 0.00 in
21:13 76.8 °F 65.4 °F 29.78 in NNE 2.0 mph 3.0 mph 68% 0.00 in
21:18 76.5 °F 65.6 °F 29.78 in NE 1.0 mph 2.0 mph 69% 0.00 in
21:24 76.4 °F 65.5 °F 29.78 in NNE 3.0 mph 3.0 mph 69% 0.00 in
21:29 76.1 °F 65.2 °F 29.78 in NNE 1.0 mph 2.0 mph 69% 0.00 in
21:34 75.8 °F 65.3 °F 29.77 in NE 2.0 mph 2.0 mph 70% 0.00 in
21:39 75.5 °F 65.4 °F 29.78 in NE 1.0 mph 2.0 mph 71% 0.00 in
21:44 75.4 °F 65.3 °F 29.78 in NE 1.0 mph 2.0 mph 71% 0.00 in
21:49 75.1 °F 65.5 °F 29.78 in NNE 2.0 mph 2.0 mph 72% 0.00 in
21:54 74.9 °F 65.7 °F 29.78 in NNE 1.0 mph 4.0 mph 73% 0.00 in
21:59 74.8 °F 65.6 °F 29.78 in NNE 2.0 mph 3.0 mph 73% 0.00 in
22:04 74.8 °F 65.6 °F 29.78 in NE 3.0 mph 3.0 mph 73% 0.00 in
22:09 75.0 °F 65.4 °F 29.78 in North 2.0 mph 4.0 mph 72% 0.00 in
22:14 75.0 °F 65.8 °F 29.78 in North 2.0 mph 3.0 mph 73% 0.00 in
22:19 74.6 °F 65.8 °F 29.79 in NNW 3.0 mph 4.0 mph 74% 0.00 in
22:24 74.1 °F 65.7 °F 29.79 in North 2.0 mph 4.0 mph 75% 0.00 in
22:29 73.9 °F 65.5 °F 29.79 in NE 2.0 mph 3.0 mph 75% 0.00 in
22:34 73.8 °F 65.4 °F 29.79 in NNE 1.0 mph 3.0 mph 75% 0.00 in
22:39 73.8 °F 65.4 °F 29.79 in NNE 1.0 mph 2.0 mph 75% 0.00 in
22:44 73.7 °F 65.3 °F 29.79 in NNE 2.0 mph 2.0 mph 75% 0.00 in
22:49 73.7 °F 65.3 °F 29.80 in NNE 1.0 mph 4.0 mph 75% 0.00 in
22:54 73.7 °F 65.3 °F 29.80 in NE 2.0 mph 3.0 mph 75% 0.00 in
22:59 73.6 °F 65.2 °F 29.80 in NNE 4.0 mph 4.0 mph 75% 0.00 in
23:04 73.5 °F 65.1 °F 29.80 in NNE 2.0 mph 3.0 mph 75% 0.00 in
23:10 73.3 °F 65.3 °F 29.79 in NE 2.0 mph 4.0 mph 76% 0.00 in
23:15 73.1 °F 65.1 °F 29.79 in NE 1.0 mph 3.0 mph 76% 0.00 in
23:20 73.1 °F 65.1 °F 29.79 in NE 4.0 mph 4.0 mph 76% 0.00 in
23:25 73.3 °F 65.3 °F 29.78 in NE 5.0 mph 7.0 mph 76% 0.00 in
23:30 73.5 °F 65.5 °F 29.79 in NE 2.0 mph 7.0 mph 76% 0.00 in
23:35 73.1 °F 65.1 °F 29.79 in NNE 3.0 mph 4.0 mph 76% 0.00 in
23:40 72.7 °F 65.1 °F 29.80 in North 1.0 mph 1.0 mph 77% 0.00 in
23:45 72.2 °F 65.0 °F 29.80 in NNE 3.0 mph 3.0 mph 78% 0.00 in
23:48 72.1 °F 65.2 °F 29.79 in NE 3.0 mph 4.0 mph 79% 0.00 in
23:53 71.9 °F 65.0 °F 29.79 in North 2.0 mph 4.0 mph 79% 0.00 in
23:58 71.8 °F 64.9 °F 29.79 in NE 4.0 mph 5.0 mph 79% 0.00 in
Compliments of Weather Underground